Time;durP1;ratioP1;P1;durP2;ratioP2;P2;SDS_P1;SDS_P2;PMS_P1;PMS_P2;Temp;Humidity;BMP_temperature;BMP_pressure;BME280_temperature;BME280_humidity;BME280_pressure;Samples;Min_cycle;Max_cycle;Signal;HPM_P1;HPM_P2
2021/05/07 00:00:07;;;;;;;10.88;2.60;;;21.50;89.40;;;;;;5106594;28;20012;-64
2021/05/07 00:02:34;;;;;;;4.47;1.83;;;21.60;89.40;;;;;;5107233;28;20344;-63
2021/05/07 00:05:02;;;;;;;10.30;2.40;;;21.80;89.10;;;;;;5108963;28;20080;-70
2021/05/07 00:07:29;;;;;;;7.55;2.10;;;22.00;87.50;;;;;;5110168;28;20015;-70
2021/05/07 00:09:57;;;;;;;8.57;2.60;;;22.00;87.50;;;;;;5109866;28;20118;-64
2021/05/07 00:12:24;;;;;;;7.13;2.08;;;22.10;86.70;;;;;;5110215;28;20024;-63
2021/05/07 00:14:51;;;;;;;9.85;3.10;;;22.10;87.80;;;;;;5114121;28;20348;-61
2021/05/07 00:17:19;;;;;;;7.32;2.67;;;22.00;88.10;;;;;;5114109;28;20028;-62
2021/05/07 00:19:46;;;;;;;8.38;2.80;;;21.90;87.10;;;;;;5112917;28;20532;-71
2021/05/07 00:22:13;;;;;;;8.68;2.20;;;21.60;90.30;;;;;;5113883;28;20055;-66
2021/05/07 00:24:41;;;;;;;9.07;2.28;;;21.10;91.10;;;;;;5112640;28;20099;-64
2021/05/07 00:27:08;;;;;;;9.50;2.25;;;20.70;93.10;;;;;;5113828;28;20162;-65
2021/05/07 00:29:35;;;;;;;9.35;5.15;;;20.50;93.10;;;;;;5113044;28;20020;-63
2021/05/07 00:32:03;;;;;;;10.20;5.43;;;20.40;93.80;;;;;;5113675;28;20066;-65
2021/05/07 00:34:30;;;;;;;7.55;5.05;;;20.50;94.00;;;;;;5113323;28;20464;-64
2021/05/07 00:36:57;;;;;;;5.63;2.58;;;20.60;93.60;;;;;;5113550;28;20043;-69
2021/05/07 00:39:24;;;;;;;8.73;2.78;;;20.60;93.00;;;;;;5112938;28;20015;-69
2021/05/07 00:41:52;;;;;;;7.72;2.30;;;20.60;93.40;;;;;;5113846;28;20085;-61
2021/05/07 00:44:19;;;;;;;6.38;2.40;;;20.50;92.70;;;;;;5113634;28;20030;-68
2021/05/07 00:46:47;;;;;;;6.45;2.13;;;20.40;93.20;;;;;;5114092;28;20023;-61
2021/05/07 00:49:14;;;;;;;8.20;2.60;;;20.50;93.20;;;;;;5094530;28;20042;-64
2021/05/07 00:51:42;;;;;;;8.45;2.38;;;20.40;92.80;;;;;;5112759;28;20031;-62
2021/05/07 00:54:09;;;;;;;10.68;3.42;;;20.50;92.10;;;;;;5113042;28;20031;-63
2021/05/07 00:56:36;;;;;;;6.97;2.13;;;20.60;92.60;;;;;;5116375;27;20560;-60
2021/05/07 00:59:04;;;;;;;9.98;2.33;;;20.70;91.50;;;;;;5119040;27;20514;-70
2021/05/07 01:01:31;;;;;;;7.43;2.58;;;20.60;90.50;;;;;;5112200;28;20128;-63
2021/05/07 01:04:00;;;;;;;9.65;2.78;;;20.50;90.80;;;;;;5113079;28;20471;-63
2021/05/07 01:06:27;;;;;;;8.63;3.50;;;20.50;91.10;;;;;;5112382;28;20405;-68
2021/05/07 01:08:56;;;;;;;9.18;2.95;;;20.60;91.50;;;;;;5112466;28;20027;-60
2021/05/07 01:11:23;;;;;;;10.32;2.85;;;20.70;90.70;;;;;;5113037;28;20015;-63
2021/05/07 01:13:51;;;;;;;9.40;2.80;;;20.80;91.00;;;;;;5112271;28;20118;-60
2021/05/07 01:16:18;;;;;;;11.75;2.92;;;20.90;90.40;;;;;;5112134;28;20019;-64
2021/05/07 01:18:45;;;;;;;5.50;2.65;;;21.00;90.60;;;;;;5112189;28;20717;-61
2021/05/07 01:21:13;;;;;;;8.95;2.85;;;21.10;90.40;;;;;;5106064;28;20008;-64
2021/05/07 01:23:40;;;;;;;5.90;2.90;;;21.20;89.50;;;;;;5121639;23;20055;-69
2021/05/07 01:26:07;;;;;;;7.75;2.20;;;21.50;89.40;;;;;;5135357;27;20030;-61
2021/05/07 01:28:35;;;;;;;6.93;1.88;;;21.70;86.90;;;;;;5131892;27;20352;-70
2021/05/07 01:31:03;;;;;;;7.45;2.20;;;21.70;84.90;;;;;;5132276;27;20138;-65
2021/05/07 01:33:30;;;;;;;7.22;2.28;;;21.90;86.10;;;;;;5131245;27;20389;-61
2021/05/07 01:35:58;;;;;;;6.78;2.33;;;22.10;86.20;;;;;;5132350;27;20047;-65
2021/05/07 01:38:25;;;;;;;7.70;2.15;;;22.30;86.20;;;;;;5132023;27;20016;-64
2021/05/07 01:40:53;;;;;;;6.20;2.00;;;22.40;84.10;;;;;;5131507;27;20031;-62
2021/05/07 01:43:21;;;;;;;8.73;1.98;;;22.40;84.00;;;;;;5131902;27;20064;-71
2021/05/07 01:45:49;;;;;;;9.55;2.60;;;22.40;86.30;;;;;;5131900;27;20479;-65
2021/05/07 01:48:17;;;;;;;6.80;2.25;;;22.40;84.60;;;;;;5131013;27;20049;-71
2021/05/07 01:50:47;;;;;;;9.25;2.45;;;22.50;84.30;;;;;;5131125;27;20027;-64
2021/05/07 01:53:15;;;;;;;5.93;2.10;;;22.50;84.50;;;;;;5131833;27;20497;-65
2021/05/07 01:55:48;;;;;;;9.35;2.13;;;22.50;83.70;;;;;;5124980;27;20029;-71
2021/05/07 01:58:17;;;;;;;7.57;2.17;;;22.60;84.10;;;;;;5130250;27;20023;-64
2021/05/07 02:00:44;;;;;;;7.85;2.22;;;22.70;83.50;;;;;;5129414;27;20085;-72
2021/05/07 02:03:12;;;;;;;10.35;2.78;;;22.70;83.00;;;;;;5130252;27;20016;-64
2021/05/07 02:05:40;;;;;;;7.75;2.58;;;22.70;84.40;;;;;;5130767;27;20023;-64
2021/05/07 02:08:08;;;;;;;7.97;2.30;;;22.70;84.10;;;;;;5130508;27;20094;-64
2021/05/07 02:10:36;;;;;;;4.50;1.80;;;22.60;83.20;;;;;;5130453;27;20035;-63
2021/05/07 02:13:09;;;;;;;7.85;2.35;;;22.20;85.40;;;;;;5130656;27;20485;-72
2021/05/07 02:15:37;;;;;;;8.50;3.25;;;22.10;84.90;;;;;;5112644;27;20023;-63
2021/05/07 02:18:07;;;;;;;9.38;3.17;;;22.10;87.20;;;;;;5131170;27;20034;-72
2021/05/07 02:20:35;;;;;;;7.20;2.83;;;22.00;87.50;;;;;;5131280;27;20027;-60
2021/05/07 02:23:02;;;;;;;5.72;2.05;;;21.90;86.40;;;;;;5130777;27;20035;-60
2021/05/07 02:25:30;;;;;;;7.55;2.28;;;21.70;88.00;;;;;;5112782;27;20023;-60
2021/05/07 02:27:57;;;;;;;8.25;2.42;;;21.80;87.30;;;;;;5131385;27;20015;-59
2021/05/07 02:30:27;;;;;;;7.18;2.55;;;22.00;87.30;;;;;;5131528;27;20433;-60
2021/05/07 02:32:55;;;;;;;7.30;2.50;;;22.30;86.50;;;;;;5124189;27;20023;-64
2021/05/07 02:35:24;;;;;;;9.25;2.33;;;22.40;85.00;;;;;;5130838;27;20087;-64
2021/05/07 02:37:51;;;;;;;5.95;2.38;;;22.40;84.50;;;;;;5125576;27;20464;-65
2021/05/07 02:40:19;;;;;;;6.50;1.92;;;22.50;83.60;;;;;;5117501;27;20042;-71
2021/05/07 02:42:46;;;;;;;5.95;2.38;;;22.70;84.20;;;;;;5115334;27;20486;-72
2021/05/07 02:45:14;;;;;;;8.00;2.42;;;23.00;82.60;;;;;;5118490;27;20023;-71
2021/05/07 02:47:42;;;;;;;6.85;2.10;;;23.30;80.90;;;;;;5115060;27;20016;-60
2021/05/07 02:50:10;;;;;;;5.85;2.15;;;23.40;80.60;;;;;;5115546;27;20024;-64
2021/05/07 02:52:41;;;;;;;8.50;2.80;;;23.70;81.20;;;;;;5114961;27;20055;-63
2021/05/07 02:55:10;;;;;;;8.82;2.22;;;23.90;79.40;;;;;;5114936;27;20054;-63
2021/05/07 02:57:38;;;;;;;6.60;2.20;;;24.00;80.00;;;;;;5116119;27;20444;-71
2021/05/07 03:00:07;;;;;;;6.43;2.22;;;24.20;77.50;;;;;;5115713;27;20020;-63
2021/05/07 03:02:35;;;;;;;7.63;2.03;;;23.70;80.90;;;;;;5115532;27;20058;-64
2021/05/07 03:05:04;;;;;;;6.70;2.33;;;23.10;82.40;;;;;;5115275;27;20080;-64
2021/05/07 03:07:31;;;;;;;8.20;2.40;;;22.70;83.70;;;;;;5118394;27;20098;-70
2021/05/07 03:09:58;;;;;;;7.45;2.08;;;22.50;83.70;;;;;;5116471;27;20034;-63
2021/05/07 03:12:26;;;;;;;6.60;2.47;;;22.20;85.30;;;;;;5114738;27;20536;-64
2021/05/07 03:14:53;;;;;;;6.85;2.08;;;22.10;86.90;;;;;;5118326;27;20024;-60
2021/05/07 03:17:20;;;;;;;6.90;2.15;;;22.30;86.90;;;;;;5116026;27;20079;-60
2021/05/07 03:19:48;;;;;;;7.40;5.18;;;22.50;85.70;;;;;;5116337;27;20027;-71
2021/05/07 03:22:15;;;;;;;7.93;2.70;;;22.70;83.80;;;;;;5116175;27;20057;-60
2021/05/07 03:24:43;;;;;;;7.85;2.83;;;22.60;82.70;;;;;;5117164;27;20627;-70
2021/05/07 03:27:11;;;;;;;10.02;3.17;;;22.70;83.80;;;;;;5114953;27;20102;-62
2021/05/07 03:29:38;;;;;;;7.22;2.72;;;22.80;81.80;;;;;;5116087;27;20028;-64
2021/05/07 03:32:05;;;;;;;8.80;3.20;;;22.70;81.20;;;;;;5116695;27;20216;-60
2021/05/07 03:34:33;;;;;;;7.75;2.72;;;22.60;82.20;;;;;;5115291;27;20026;-72
2021/05/07 03:37:00;;;;;;;13.02;3.72;;;22.50;81.80;;;;;;5118860;27;20487;-63
2021/05/07 03:39:28;;;;;;;10.77;3.67;;;22.60;82.20;;;;;;5119336;27;20015;-63
2021/05/07 03:41:55;;;;;;;10.50;3.50;;;22.80;82.70;;;;;;5117812;27;20019;-62
2021/05/07 03:44:22;;;;;;;9.80;3.75;;;23.00;81.40;;;;;;5115545;27;20011;-72
2021/05/07 03:46:50;;;;;;;11.52;3.72;;;22.90;80.80;;;;;;5114709;27;20023;-73
2021/05/07 03:49:17;;;;;;;13.65;3.78;;;22.90;81.90;;;;;;5112813;28;20039;-72
2021/05/07 03:51:45;;;;;;;13.65;4.78;;;22.70;82.20;;;;;;5114003;28;20024;-63
2021/05/07 03:54:12;;;;;;;12.20;4.20;;;22.60;83.60;;;;;;5117684;28;20019;-62
2021/05/07 03:56:39;;;;;;;14.93;5.60;;;22.40;84.80;;;;;;5115918;28;20016;-65
2021/05/07 03:59:07;;;;;;;10.30;3.72;;;22.30;83.80;;;;;;5115049;28;20023;-61
2021/05/07 04:01:34;;;;;;;14.20;4.00;;;22.20;86.10;;;;;;5114791;28;20062;-68
2021/05/07 04:04:05;;;;;;;8.23;3.97;;;22.10;87.90;;;;;;5114865;28;20081;-66
2021/05/07 04:06:32;;;;;;;15.57;4.72;;;22.00;88.70;;;;;;5117051;28;20023;-70
2021/05/07 04:09:13;;;;;;;13.20;4.35;;;22.00;89.20;;;;;;5114669;28;20105;-70
2021/05/07 04:11:54;;;;;;;13.30;3.65;;;21.90;90.00;;;;;;5113894;28;20034;-62
2021/05/07 04:14:21;;;;;;;12.57;4.60;;;22.00;90.50;;;;;;5112321;28;20016;-64
2021/05/07 04:16:49;;;;;;;12.63;4.57;;;21.90;90.30;;;;;;5112766;28;20020;-64
2021/05/07 04:19:17;;;;;;;11.00;4.25;;;21.90;89.90;;;;;;4408871;27;10000879;-70
2021/05/07 04:21:44;;;;;;;13.88;4.53;;;21.90;89.00;;;;;;5124693;28;20491;-70
2021/05/07 04:24:12;;;;;;;11.07;4.25;;;21.90;89.20;;;;;;5125819;28;20338;-65
2021/05/07 04:26:40;;;;;;;8.48;3.85;;;21.80;86.80;;;;;;5126499;28;20076;-65
2021/05/07 04:29:07;;;;;;;9.95;4.07;;;21.80;87.60;;;;;;5118388;28;20031;-61
2021/05/07 04:31:35;;;;;;;10.73;4.57;;;21.80;87.40;;;;;;5125407;28;20031;-62
2021/05/07 04:34:02;;;;;;;11.00;4.80;;;21.90;88.00;;;;;;5125093;28;20031;-61
2021/05/07 04:36:30;;;;;;;11.55;4.05;;;22.10;88.70;;;;;;5126283;28;20023;-63
2021/05/07 04:38:57;;;;;;;11.80;4.72;;;22.10;86.00;;;;;;5125572;28;20490;-71
2021/05/07 04:41:25;;;;;;;11.48;4.63;;;22.00;87.10;;;;;;5115800;28;20134;-63
2021/05/07 04:43:52;;;;;;;16.10;5.47;;;21.90;87.20;;;;;;5122740;28;20378;-70
2021/05/07 04:46:19;;;;;;;14.23;5.00;;;21.90;86.00;;;;;;5115337;28;20023;-63
2021/05/07 04:48:47;;;;;;;17.13;5.35;;;21.70;85.10;;;;;;5114601;28;20034;-61
2021/05/07 04:51:14;;;;;;;17.30;5.38;;;21.50;85.20;;;;;;5111746;28;20110;-62
2021/05/07 04:53:41;;;;;;;15.52;5.32;;;21.40;86.30;;;;;;5121526;28;20080;-65
2021/05/07 04:56:09;;;;;;;17.98;5.25;;;21.20;84.60;;;;;;5121338;28;20011;-63
2021/05/07 04:58:36;;;;;;;23.50;5.07;;;21.10;85.50;;;;;;5122082;27;20020;-71
2021/05/07 05:01:03;;;;;;;16.67;5.30;;;21.10;85.30;;;;;;5126767;27;20028;-64
2021/05/07 05:03:31;;;;;;;20.25;8.70;;;21.10;85.20;;;;;;5125267;27;20030;-63
2021/05/07 05:05:58;;;;;;;15.05;4.90;;;21.20;85.30;;;;;;5125116;27;20528;-70
2021/05/07 05:08:26;;;;;;;17.35;4.78;;;21.20;85.60;;;;;;5116870;27;20484;-70
2021/05/07 05:10:57;;;;;;;22.50;6.43;;;21.30;83.40;;;;;;5114821;27;20030;-71
2021/05/07 05:13:25;;;;;;;14.20;4.78;;;21.30;84.80;;;;;;5120155;27;20941;-65
2021/05/07 05:15:54;;;;;;;12.82;4.50;;;21.30;82.70;;;;;;5119521;27;20087;-61
2021/05/07 05:18:32;;;;;;;18.38;4.18;;;21.40;84.70;;;;;;5115048;27;20061;-66
2021/05/07 05:21:05;;;;;;;19.48;5.38;;;21.50;84.50;;;;;;5114368;27;20027;-69
2021/05/07 05:23:31;;;;;;;;;;;21.60;83.40;;;;;;5125830;27;20119;-67
2021/05/07 05:25:59;;;;;;;16.60;4.65;;;21.60;81.80;;;;;;5118194;27;20325;-62
2021/05/07 05:28:27;;;;;;;13.25;4.53;;;21.60;81.60;;;;;;5117530;27;20026;-61
2021/05/07 05:30:55;;;;;;;17.63;4.72;;;21.60;83.00;;;;;;5121394;27;20029;-68
2021/05/07 05:33:22;;;;;;;9.77;3.70;;;21.70;81.10;;;;;;5104967;27;20034;-67
2021/05/07 05:35:49;;;;;;;13.85;3.40;;;22.10;79.00;;;;;;5115311;27;20027;-67
2021/05/07 05:38:17;;;;;;;11.30;3.33;;;22.10;76.30;;;;;;5123948;27;20048;-63
2021/05/07 05:40:44;;;;;;;12.77;3.15;;;22.00;75.60;;;;;;5124125;27;20051;-66
2021/05/07 05:43:11;;;;;;;12.57;3.85;;;22.30;75.40;;;;;;5111062;27;20098;-62
2021/05/07 05:45:39;;;;;;;9.43;3.28;;;22.50;73.80;;;;;;5114301;27;20028;-63
2021/05/07 05:48:08;;;;;;;11.73;2.97;;;22.30;73.90;;;;;;5114981;27;20027;-67
2021/05/07 05:50:40;;;;;;;12.48;3.45;;;22.20;74.40;;;;;;5116958;27;20588;-68
2021/05/07 05:53:08;;;;;;;9.20;2.92;;;21.90;75.10;;;;;;5120669;27;20027;-67
2021/05/07 05:55:37;;;;;;;7.97;2.63;;;21.60;74.50;;;;;;5109603;27;20035;-71
2021/05/07 05:58:05;;;;;;;11.63;3.35;;;21.80;75.50;;;;;;5108507;27;20026;-70
2021/05/07 06:00:34;;;;;;;13.05;3.00;;;22.10;73.60;;;;;;5112993;27;20483;-67
2021/05/07 06:03:01;;;;;;;9.90;3.42;;;22.30;73.70;;;;;;5112418;27;20611;-69
2021/05/07 06:05:28;;;;;;;11.60;3.28;;;22.10;75.10;;;;;;5119008;27;20023;-70
2021/05/07 06:07:56;;;;;;;13.70;3.10;;;21.70;74.70;;;;;;5123082;27;20016;-69
2021/05/07 06:10:23;;;;;;;9.82;2.92;;;21.40;77.60;;;;;;5110525;27;20041;-68
2021/05/07 06:12:51;;;;;;;17.35;3.65;;;21.10;78.90;;;;;;5127304;27;20038;-66
2021/05/07 06:15:20;;;;;;;13.07;3.05;;;20.90;78.40;;;;;;5112670;27;20487;-66
2021/05/07 06:17:48;;;;;;;14.25;4.20;;;20.80;79.70;;;;;;5129275;27;20076;-69
2021/05/07 06:20:18;;;;;;;9.90;2.95;;;20.60;80.90;;;;;;5120714;27;20060;-66
2021/05/07 06:22:48;;;;;;;12.40;3.55;;;20.50;79.60;;;;;;5109662;27;20392;-64
2021/05/07 06:25:18;;;;;;;10.43;2.80;;;20.40;79.30;;;;;;5121997;27;20027;-67
2021/05/07 06:27:45;;;;;;;8.65;2.45;;;20.40;80.10;;;;;;5119505;27;20019;-67
2021/05/07 06:30:16;;;;;;;12.10;3.05;;;20.30;80.20;;;;;;5122026;27;20029;-72
2021/05/07 06:32:44;;;;;;;9.63;3.33;;;20.20;81.40;;;;;;5120362;27;20029;-70
2021/05/07 06:35:12;;;;;;;9.65;2.63;;;20.10;82.20;;;;;;5117857;27;20191;-68
2021/05/07 06:37:40;;;;;;;11.43;3.10;;;20.00;82.80;;;;;;5122306;27;20034;-65
2021/05/07 06:40:08;;;;;;;11.43;3.28;;;19.90;83.50;;;;;;5112748;27;20164;-65
2021/05/07 06:42:38;;;;;;;14.43;3.67;;;19.80;83.70;;;;;;5110465;27;20031;-63
2021/05/07 06:45:07;;;;;;;13.77;3.17;;;19.70;84.00;;;;;;5118824;27;20015;-66
2021/05/07 06:47:35;;;;;;;13.07;3.08;;;19.70;84.90;;;;;;5118977;27;20011;-68
2021/05/07 06:50:03;;;;;;;12.07;3.33;;;19.60;86.00;;;;;;5120522;27;20027;-68
2021/05/07 06:52:31;;;;;;;13.57;3.53;;;19.60;85.60;;;;;;5118381;27;20406;-69
2021/05/07 06:55:00;;;;;;;16.25;3.55;;;19.50;86.30;;;;;;5122275;27;20360;-67
2021/05/07 06:57:27;;;;;;;14.63;4.10;;;19.40;86.60;;;;;;5114759;27;20476;-66
2021/05/07 06:59:55;;;;;;;10.52;4.60;;;19.40;86.60;;;;;;5112777;27;20113;-68
2021/05/07 07:02:22;;;;;;;13.80;5.30;;;19.30;87.10;;;;;;5115177;27;20023;-68
2021/05/07 07:04:49;;;;;;;11.65;4.18;;;19.30;86.90;;;;;;5113459;27;20357;-66
2021/05/07 07:07:17;;;;;;;11.73;3.22;;;19.20;87.50;;;;;;5113689;27;20198;-67
2021/05/07 07:09:44;;;;;;;13.43;3.83;;;19.20;86.70;;;;;;5122294;27;20391;-67
2021/05/07 07:12:12;;;;;;;9.93;3.50;;;19.20;87.40;;;;;;5117911;27;20034;-67
2021/05/07 07:14:40;;;;;;;12.18;3.42;;;19.10;88.20;;;;;;5114027;27;20410;-65
2021/05/07 07:17:08;;;;;;;11.75;3.47;;;19.00;88.80;;;;;;5117981;27;20033;-67
2021/05/07 07:19:36;;;;;;;12.25;3.67;;;18.90;89.40;;;;;;5108307;27;20034;-66
2021/05/07 07:22:10;;;;;;;15.23;4.28;;;18.80;90.00;;;;;;5121115;27;20062;-66
2021/05/07 07:24:37;;;;;;;19.05;4.28;;;18.70;90.30;;;;;;5121669;27;20027;-67
2021/05/07 07:27:05;;;;;;;9.52;4.45;;;18.70;90.30;;;;;;5112011;27;20022;-67
2021/05/07 07:29:32;;;;;;;15.63;4.47;;;18.60;90.20;;;;;;5118469;27;20041;-66
2021/05/07 07:32:00;;;;;;;14.40;4.18;;;18.60;90.30;;;;;;5112442;27;20035;-67
2021/05/07 07:34:28;;;;;;;12.57;5.10;;;18.60;90.40;;;;;;5105253;27;20118;-65
2021/05/07 07:36:55;;;;;;;19.90;11.95;;;18.40;90.70;;;;;;5111906;27;20648;-65
2021/05/07 07:39:23;;;;;;;26.67;13.63;;;18.30;91.10;;;;;;5110888;27;20091;-66
2021/05/07 07:41:51;;;;;;;18.90;6.28;;;18.20;91.50;;;;;;5109814;27;20111;-66
2021/05/07 07:44:18;;;;;;;18.25;6.00;;;18.10;91.70;;;;;;5111057;27;20026;-65
2021/05/07 07:46:46;;;;;;;20.98;6.40;;;18.00;92.00;;;;;;5107203;27;20030;-66
2021/05/07 07:49:16;;;;;;;13.63;4.60;;;18.00;91.90;;;;;;5106894;27;20062;-66
2021/05/07 07:51:58;;;;;;;13.93;3.65;;;18.00;92.10;;;;;;5102397;27;20031;-66
2021/05/07 07:54:27;;;;;;;10.83;4.33;;;18.00;92.00;;;;;;5107906;27;20079;-66
2021/05/07 07:56:55;;;;;;;15.30;5.72;;;18.00;92.00;;;;;;5101708;28;20055;-65
2021/05/07 07:59:22;;;;;;;15.77;4.43;;;18.00;91.90;;;;;;5110878;28;20545;-66
2021/05/07 08:01:49;;;;;;;15.52;7.82;;;18.10;91.70;;;;;;5113994;28;20024;-66
2021/05/07 08:04:17;;;;;;;17.17;6.40;;;18.10;91.60;;;;;;5109501;28;20110;-64
2021/05/07 08:06:48;;;;;;;16.67;8.32;;;18.10;91.80;;;;;;5108008;28;20057;-65
2021/05/07 08:09:15;;;;;;;12.48;4.57;;;18.00;91.80;;;;;;5107913;28;20035;-66
2021/05/07 08:11:42;;;;;;;17.10;6.35;;;18.00;92.00;;;;;;5104783;28;20023;-66
2021/05/07 08:14:10;;;;;;;16.98;5.13;;;18.10;91.80;;;;;;5107726;28;20246;-68
2021/05/07 08:16:37;;;;;;;18.10;5.85;;;18.00;91.90;;;;;;5107378;28;20059;-66
2021/05/07 08:19:04;;;;;;;13.90;4.78;;;18.00;91.90;;;;;;5109480;28;20383;-66
2021/05/07 08:21:32;;;;;;;13.43;4.78;;;18.00;92.00;;;;;;5106227;28;20340;-67
2021/05/07 08:23:59;;;;;;;12.05;3.85;;;18.00;92.00;;;;;;5106373;28;20039;-65
2021/05/07 08:26:26;;;;;;;13.50;4.25;;;17.90;92.10;;;;;;5105618;28;20031;-68
2021/05/07 08:28:53;;;;;;;8.15;3.38;;;17.90;92.40;;;;;;5109732;28;20152;-70
2021/05/07 08:31:21;;;;;;;15.95;4.65;;;17.80;92.60;;;;;;5108641;28;20063;-65
2021/05/07 08:33:48;;;;;;;17.05;3.83;;;17.80;92.60;;;;;;5106869;27;20034;-67
2021/05/07 08:36:15;;;;;;;9.82;3.42;;;17.70;92.70;;;;;;5111332;27;20030;-70
2021/05/07 08:38:42;;;;;;;11.52;3.67;;;17.70;92.80;;;;;;5108839;27;20644;-64
2021/05/07 08:41:10;;;;;;;17.33;4.40;;;17.70;92.90;;;;;;5111875;27;20127;-63
2021/05/07 08:43:37;;;;;;;16.33;4.65;;;17.70;92.90;;;;;;5107573;27;20034;-63
2021/05/07 08:46:08;;;;;;;14.50;4.90;;;17.70;92.80;;;;;;5118161;27;20159;-66
2021/05/07 08:48:38;;;;;;;13.85;4.45;;;17.80;92.60;;;;;;5114740;27;20028;-65
2021/05/07 08:51:06;;;;;;;16.17;4.57;;;17.70;93.20;;;;;;5113881;27;20496;-65
2021/05/07 08:53:33;;;;;;;15.13;4.93;;;17.70;92.90;;;;;;5113428;27;20384;-70
2021/05/07 08:56:08;;;;;;;19.45;9.70;;;17.70;92.90;;;;;;5112859;27;20474;-71
2021/05/07 08:58:36;;;;;;;15.40;7.28;;;17.70;93.10;;;;;;5112302;27;20067;-70
2021/05/07 09:01:04;;;;;;;18.65;4.95;;;17.70;93.10;;;;;;5113039;27;20023;-60
2021/05/07 09:03:47;;;;;;;13.60;4.43;;;17.70;93.20;;;;;;5111663;27;20435;-63
2021/05/07 09:06:21;;;;;;;9.38;3.65;;;17.80;93.00;;;;;;5113526;27;20058;-63
2021/05/07 09:08:49;;;;;;;12.00;3.45;;;17.80;92.70;;;;;;5109440;27;20436;-64
2021/05/07 09:11:18;;;;;;;14.57;3.47;;;17.80;92.70;;;;;;5109178;27;20077;-69
2021/05/07 09:13:46;;;;;;;12.90;3.83;;;17.80;92.40;;;;;;5107651;27;20027;-62
2021/05/07 09:16:13;;;;;;;12.25;3.88;;;17.80;92.60;;;;;;5110193;27;20046;-63
2021/05/07 09:18:51;;;;;;;11.80;2.97;;;17.80;92.50;;;;;;5110576;27;20062;-65
2021/05/07 09:21:19;;;;;;;14.93;3.88;;;17.80;92.40;;;;;;5111723;27;20023;-65
2021/05/07 09:23:51;;;;;;;10.57;3.85;;;17.80;92.40;;;;;;5109426;27;20439;-61
2021/05/07 09:26:18;;;;;;;8.52;3.58;;;17.90;92.10;;;;;;5107704;27;20019;-69
2021/05/07 09:28:57;;;;;;;11.60;3.75;;;17.90;92.10;;;;;;5107758;27;20066;-64
2021/05/07 09:31:25;;;;;;;11.88;3.60;;;18.00;91.90;;;;;;5108428;27;20027;-64
2021/05/07 09:33:53;;;;;;;16.35;4.47;;;18.00;91.90;;;;;;5110075;27;20283;-60
2021/05/07 09:36:25;;;;;;;12.82;4.07;;;17.90;92.20;;;;;;5109841;27;20027;-64
2021/05/07 09:38:53;;;;;;;10.82;3.42;;;17.80;92.40;;;;;;5109272;27;20020;-70
2021/05/07 09:41:20;;;;;;;13.88;3.47;;;17.80;92.70;;;;;;5112932;27;20031;-67
2021/05/07 09:43:48;;;;;;;11.38;3.53;;;17.80;92.60;;;;;;5105559;27;20016;-67
2021/05/07 09:46:15;;;;;;;16.52;3.47;;;17.80;92.80;;;;;;5109923;27;20028;-64
2021/05/07 09:48:43;;;;;;;11.32;4.13;;;17.80;92.70;;;;;;5109597;27;20024;-69
2021/05/07 09:51:13;;;;;;;11.27;4.57;;;17.80;92.60;;;;;;5111785;27;20047;-64
2021/05/07 09:53:44;;;;;;;8.52;3.38;;;17.90;92.60;;;;;;5109228;27;20034;-65
2021/05/07 09:56:16;;;;;;;15.57;3.77;;;17.90;92.70;;;;;;4750590;27;10000332;-70
2021/05/07 09:58:44;;;;;;;9.70;3.92;;;17.80;93.20;;;;;;5102359;27;20022;-68
2021/05/07 10:01:12;;;;;;;12.18;4.32;;;17.90;93.50;;;;;;5107050;27;20077;-68
2021/05/07 10:03:40;;;;;;;11.77;4.25;;;17.90;93.60;;;;;;5105217;27;20228;-69
2021/05/07 10:06:07;;;;;;;11.57;4.15;;;18.00;93.90;;;;;;5106330;27;20023;-70
2021/05/07 10:08:47;;;;;;;12.73;4.68;;;17.90;93.50;;;;;;5108212;27;20040;-67
2021/05/07 10:11:16;;;;;;;12.75;4.13;;;17.90;94.10;;;;;;5106993;27;20527;-67
2021/05/07 10:13:44;;;;;;;15.75;4.32;;;17.90;94.20;;;;;;5104880;27;20020;-69
2021/05/07 10:16:12;;;;;;;11.50;4.43;;;17.90;94.50;;;;;;5108114;27;20036;-68
2021/05/07 10:18:41;;;;;;;13.95;4.72;;;17.70;94.10;;;;;;5107409;27;20114;-68
2021/05/07 10:21:11;;;;;;;13.80;4.82;;;17.70;94.20;;;;;;5103755;27;20015;-67
2021/05/07 10:23:51;;;;;;;11.75;4.65;;;17.70;94.40;;;;;;5105975;27;20046;-69
2021/05/07 10:26:19;;;;;;;15.25;5.18;;;17.80;94.60;;;;;;5109174;27;20015;-70
2021/05/07 10:28:48;;;;;;;10.43;4.88;;;17.80;94.60;;;;;;5104141;27;20023;-68
2021/05/07 10:31:17;;;;;;;13.02;4.57;;;17.80;94.50;;;;;;5102967;27;20024;-68
2021/05/07 10:34:06;;;;;;;11.02;5.20;;;17.80;94.50;;;;;;5106478;27;20053;-68
2021/05/07 10:36:41;;;;;;;10.23;5.00;;;17.80;94.40;;;;;;5104300;27;20114;-69
2021/05/07 10:39:24;;;;;;;11.43;5.00;;;17.70;94.60;;;;;;5103184;27;20210;-68
2021/05/07 10:41:53;;;;;;;10.25;4.63;;;17.60;94.70;;;;;;5103778;27;20034;-69
2021/05/07 10:44:25;;;;;;;10.98;4.32;;;17.60;94.90;;;;;;5100478;27;20023;-68
2021/05/07 10:47:06;;;;;;;9.50;4.18;;;17.50;94.90;;;;;;5101149;27;20043;-68
2021/05/07 10:49:41;;;;;;;10.63;4.65;;;17.40;94.90;;;;;;5105986;27;20229;-69
2021/05/07 10:52:10;;;;;;;15.93;5.53;;;17.40;95.30;;;;;;5107071;27;20047;-65
2021/05/07 10:54:46;;;;;;;11.07;4.30;;;17.30;95.30;;;;;;5104628;27;20060;-66
2021/05/07 10:57:28;;;;;;;13.75;5.18;;;17.30;95.40;;;;;;5106900;27;20439;-65
2021/05/07 11:00:02;;;;;;;8.02;4.63;;;17.40;95.30;;;;;;5103198;27;21147;-65
2021/05/07 11:02:41;;;;;;;12.93;5.82;;;17.30;95.20;;;;;;5108967;27;20027;-64
2021/05/07 11:05:09;;;;;;;12.48;6.43;;;17.30;95.50;;;;;;5105308;27;20384;-66
2021/05/07 11:07:37;;;;;;;15.55;6.88;;;17.20;95.70;;;;;;5100962;27;20024;-65
2021/05/07 11:10:09;;;;;;;22.08;9.80;;;17.20;95.80;;;;;;5105702;27;20038;-65
2021/05/07 11:12:42;;;;;;;17.35;7.53;;;17.20;95.60;;;;;;5108539;27;20031;-68
2021/05/07 11:15:17;;;;;;;21.40;13.68;;;17.20;95.80;;;;;;5103748;27;20035;-63
2021/05/07 11:17:45;;;;;;;16.92;8.32;;;17.10;95.70;;;;;;5104308;27;20032;-65
2021/05/07 11:20:13;;;;;;;16.05;7.18;;;16.90;95.70;;;;;;5102314;27;20023;-63
2021/05/07 11:22:40;;;;;;;16.60;6.50;;;16.90;95.80;;;;;;5105716;27;20354;-65
2021/05/07 11:25:09;;;;;;;11.30;6.00;;;16.80;95.90;;;;;;5109491;27;20088;-66
2021/05/07 11:27:38;;;;;;;16.00;7.70;;;16.70;95.70;;;;;;5105332;27;20756;-65
2021/05/07 11:30:12;;;;;;;10.48;5.53;;;16.70;95.90;;;;;;5101795;27;20345;-65
2021/05/07 11:32:39;;;;;;;16.08;6.65;;;16.60;95.70;;;;;;5101856;27;20027;-62
2021/05/07 11:35:08;;;;;;;10.10;6.32;;;16.50;95.90;;;;;;5101279;27;20024;-66
2021/05/07 11:37:38;;;;;;;22.08;7.72;;;16.40;95.90;;;;;;5106531;27;20027;-66
2021/05/07 11:40:11;;;;;;;19.67;11.20;;;16.40;96.40;;;;;;5102747;27;20479;-66
2021/05/07 11:42:41;;;;;;;12.68;7.03;;;16.50;96.50;;;;;;5101863;27;20741;-66
2021/05/07 11:45:11;;;;;;;11.77;6.90;;;16.40;96.50;;;;;;5104961;27;20020;-67
2021/05/07 11:47:39;;;;;;;14.88;7.60;;;16.40;97.00;;;;;;5102729;27;20050;-65
2021/05/07 11:50:07;;;;;;;11.07;7.05;;;16.50;97.20;;;;;;5108491;27;20042;-66
2021/05/07 11:52:40;;;;;;;13.95;6.15;;;16.50;97.00;;;;;;5102705;27;20027;-64
2021/05/07 11:55:27;;;;;;;;;;;16.50;96.40;;;;;;5103732;27;20031;-67
2021/05/07 11:58:01;;;;;;;18.95;7.38;;;16.40;96.30;;;;;;5101864;27;19916;-66
2021/05/07 12:00:31;;;;;;;14.65;7.60;;;16.20;96.50;;;;;;5108174;28;20076;-64
2021/05/07 12:03:10;;;;;;;16.52;6.63;;;16.20;96.40;;;;;;5103902;28;20031;-65
2021/05/07 12:05:39;;;;;;;17.05;6.57;;;16.10;96.50;;;;;;5102872;28;20174;-68
2021/05/07 12:08:09;;;;;;;18.17;7.18;;;16.00;96.50;;;;;;5102613;28;20115;-66
2021/05/07 12:10:41;;;;;;;15.15;6.28;;;16.00;96.60;;;;;;5112179;27;20547;-65
2021/05/07 12:13:10;;;;;;;12.57;6.63;;;15.90;97.00;;;;;;5108625;27;20031;-65
2021/05/07 12:15:48;;;;;;;15.23;6.75;;;15.90;96.70;;;;;;5109967;27;20271;-65
2021/05/07 12:18:21;;;;;;;11.57;6.30;;;15.90;96.90;;;;;;5113976;27;20027;-65
2021/05/07 12:20:48;;;;;;;;;;;15.90;96.90;;;;;;5111939;27;20101;-66
2021/05/07 12:23:16;;;;;;;11.85;5.70;;;15.90;97.00;;;;;;5105472;27;19923;-68
2021/05/07 12:25:48;;;;;;;15.07;6.85;;;15.90;97.10;;;;;;5107622;27;20470;-66
2021/05/07 12:28:23;;;;;;;11.82;6.28;;;16.00;97.40;;;;;;5112292;27;20023;-66
2021/05/07 12:30:53;;;;;;;18.88;7.47;;;16.00;97.30;;;;;;5107597;27;20034;-66
2021/05/07 12:33:23;;;;;;;13.25;6.45;;;16.10;97.70;;;;;;5108182;27;21014;-69
2021/05/07 12:35:57;;;;;;;11.68;6.38;;;16.10;97.40;;;;;;5108977;27;20059;-67
2021/05/07 12:38:35;;;;;;;9.73;6.00;;;16.10;97.20;;;;;;5112469;27;20084;-67
2021/05/07 12:41:10;;;;;;;12.95;6.28;;;16.10;97.20;;;;;;5110936;27;20049;-66
2021/05/07 12:43:45;;;;;;;8.88;5.60;;;16.10;97.20;;;;;;5106713;27;20028;-66
2021/05/07 12:46:17;;;;;;;15.93;5.97;;;16.00;97.10;;;;;;5108682;27;20030;-66
2021/05/07 12:48:52;;;;;;;16.42;6.32;;;15.90;97.00;;;;;;5109988;27;20023;-65